Terminal Aerodrome Forecast
Issued by NWS

Home | Current Version | Previous Version | Graphics & Text | Print | Product List | Glossary On
Versions: 1 2 3 4 5 6 7 8 9 10 11 12 13 14 15 16
010
FTUS43 KGRB 300527
TAFCWA
TAF
KCWA 300527Z 3006/0106 17004KT P6SM SCT030 BKN040
      TEMPO 3006/3010 BKN028
     FM301000 VRB03KT P6SM BKN021 OVC035
     FM301400 VRB03KT 6SM -RASN BR OVC015
     FM010000 30003KT 5SM -SN BR OVC012=

USA.gov is the U.S. government's official web portal to all federal, state and local government web resources and services.